sensor_id;sensor_type;location;lat;lon;timestamp;pressure;altitude;pressure_sealevel;temperature;humidity
69027;BME280;56080;47.594;19.116;2023-02-28T00:01:30;101341;;;0.82;65.67
69027;BME280;56080;47.594;19.116;2023-02-28T00:11:30;101345;;;0.90;65.75
69027;BME280;56080;47.594;19.116;2023-02-28T00:21:31;101351;;;0.70;67.60
69027;BME280;56080;47.594;19.116;2023-02-28T00:31:30;101369;;;0.88;66.82
69027;BME280;56080;47.594;19.116;2023-02-28T00:41:30;101372;;;0.69;67.12
69027;BME280;56080;47.594;19.116;2023-02-28T00:51:31;101378;;;0.78;66.90
69027;BME280;56080;47.594;19.116;2023-02-28T01:01:31;101384;;;0.61;67.47
69027;BME280;56080;47.594;19.116;2023-02-28T01:11:31;101384;;;0.75;67.31
69027;BME280;56080;47.594;19.116;2023-02-28T01:21:31;101383;;;0.83;67.14
69027;BME280;56080;47.594;19.116;2023-02-28T01:31:31;101379;;;0.97;66.27
69027;BME280;56080;47.594;19.116;2023-02-28T01:41:33;101383;;;0.87;65.15
69027;BME280;56080;47.594;19.116;2023-02-28T02:01:31;101378;;;0.90;64.43
69027;BME280;56080;47.594;19.116;2023-02-28T02:11:32;101381;;;0.91;64.67
69027;BME280;56080;47.594;19.116;2023-02-28T02:41:34;101362;;;0.76;65.41
69027;BME280;56080;47.594;19.116;2023-02-28T02:51:32;101368;;;0.87;65.35
69027;BME280;56080;47.594;19.116;2023-02-28T03:01:32;101377;;;1.01;65.37
69027;BME280;56080;47.594;19.116;2023-02-28T03:11:32;101377;;;0.78;65.47
69027;BME280;56080;47.594;19.116;2023-02-28T03:31:35;101387;;;1.03;64.93
69027;BME280;56080;47.594;19.116;2023-02-28T03:41:38;101390;;;1.02;64.28
69027;BME280;56080;47.594;19.116;2023-02-28T03:51:33;101378;;;0.93;64.21
69027;BME280;56080;47.594;19.116;2023-02-28T04:01:35;101382;;;1.07;63.49
69027;BME280;56080;47.594;19.116;2023-02-28T04:21:35;101382;;;1.27;62.11
69027;BME280;56080;47.594;19.116;2023-02-28T04:31:33;101375;;;0.98;63.21
69027;BME280;56080;47.594;19.116;2023-02-28T04:41:34;101364;;;1.01;63.48
69027;BME280;56080;47.594;19.116;2023-02-28T04:51:33;101360;;;0.82;62.61
69027;BME280;56080;47.594;19.116;2023-02-28T05:01:34;101360;;;1.02;61.20
69027;BME280;56080;47.594;19.116;2023-02-28T05:11:35;101362;;;1.12;60.06
69027;BME280;56080;47.594;19.116;2023-02-28T05:21:35;101364;;;1.12;59.96
69027;BME280;56080;47.594;19.116;2023-02-28T05:31:34;101369;;;1.09;58.89
69027;BME280;56080;47.594;19.116;2023-02-28T05:41:34;101377;;;1.28;58.41
69027;BME280;56080;47.594;19.116;2023-02-28T05:51:36;101390;;;1.26;57.95
69027;BME280;56080;47.594;19.116;2023-02-28T06:01:36;101393;;;1.17;58.22
69027;BME280;56080;47.594;19.116;2023-02-28T06:11:35;101407;;;1.16;58.57
69027;BME280;56080;47.594;19.116;2023-02-28T06:21:35;101400;;;1.20;57.99
69027;BME280;56080;47.594;19.116;2023-02-28T06:31:35;101414;;;1.54;57.44
69027;BME280;56080;47.594;19.116;2023-02-28T06:41:47;101413;;;1.93;56.66
69027;BME280;56080;47.594;19.116;2023-02-28T06:51:36;101412;;;1.96;55.86
69027;BME280;56080;47.594;19.116;2023-02-28T07:01:36;101422;;;2.07;54.16
69027;BME280;56080;47.594;19.116;2023-02-28T07:11:36;101424;;;1.79;54.37
69027;BME280;56080;47.594;19.116;2023-02-28T07:21:36;101434;;;2.17;53.30
69027;BME280;56080;47.594;19.116;2023-02-28T07:31:36;101447;;;2.34;52.56
69027;BME280;56080;47.594;19.116;2023-02-28T07:41:43;101451;;;2.34;51.95
69027;BME280;56080;47.594;19.116;2023-02-28T07:51:36;101448;;;2.63;50.92
69027;BME280;56080;47.594;19.116;2023-02-28T08:01:38;101445;;;2.99;50.88
69027;BME280;56080;47.594;19.116;2023-02-28T08:11:37;101445;;;3.22;50.19
69027;BME280;56080;47.594;19.116;2023-02-28T08:21:37;101441;;;3.60;49.39
69027;BME280;56080;47.594;19.116;2023-02-28T08:31:38;101444;;;3.90;48.57
69027;BME280;56080;47.594;19.116;2023-02-28T08:41:38;101446;;;4.35;47.00
69027;BME280;56080;47.594;19.116;2023-02-28T08:51:38;101438;;;4.87;45.32
69027;BME280;56080;47.594;19.116;2023-02-28T09:01:41;101441;;;5.52;44.09
69027;BME280;56080;47.594;19.116;2023-02-28T09:21:40;101428;;;7.90;39.09
69027;BME280;56080;47.594;19.116;2023-02-28T09:31:41;101431;;;7.44;39.50
69027;BME280;56080;47.594;19.116;2023-02-28T09:41:48;101446;;;5.31;43.43
69027;BME280;56080;47.594;19.116;2023-02-28T10:11:42;101444;;;5.49;44.65
69027;BME280;56080;47.594;19.116;2023-02-28T10:21:46;101431;;;5.87;44.13
69027;BME280;56080;47.594;19.116;2023-02-28T10:31:43;101433;;;5.30;45.37
69027;BME280;56080;47.594;19.116;2023-02-28T10:41:44;101416;;;6.11;45.03
69027;BME280;56080;47.594;19.116;2023-02-28T10:51:44;101410;;;5.91;45.80
69027;BME280;56080;47.594;19.116;2023-02-28T11:01:46;101394;;;5.90;45.33
69027;BME280;56080;47.594;19.116;2023-02-28T11:11:46;101387;;;5.78;45.81
69027;BME280;56080;47.594;19.116;2023-02-28T11:21:52;101395;;;5.92;46.23
69027;BME280;56080;47.594;19.116;2023-02-28T11:51:50;101379;;;6.04;46.45
69027;BME280;56080;47.594;19.116;2023-02-28T12:01:54;101369;;;6.10;46.39
69027;BME280;56080;47.594;19.116;2023-02-28T12:11:57;101361;;;5.97;47.47
69027;BME280;56080;47.594;19.116;2023-02-28T12:22:25;101346;;;6.54;46.77
69027;BME280;56080;47.594;19.116;2023-02-28T12:31:54;101341;;;6.04;47.46
69027;BME280;56080;47.594;19.116;2023-02-28T12:41:53;101320;;;6.44;46.86
69027;BME280;56080;47.594;19.116;2023-02-28T12:51:50;101322;;;6.30;47.26
69027;BME280;56080;47.594;19.116;2023-02-28T13:11:52;101308;;;6.48;46.67
69027;BME280;56080;47.594;19.116;2023-02-28T13:21:52;101300;;;6.47;46.64
69027;BME280;56080;47.594;19.116;2023-02-28T13:41:53;101295;;;6.20;47.95
69027;BME280;56080;47.594;19.116;2023-02-28T13:52:00;101282;;;6.17;48.13
69027;BME280;56080;47.594;19.116;2023-02-28T14:11:55;101269;;;6.14;48.32
69027;BME280;56080;47.594;19.116;2023-02-28T14:41:58;101255;;;6.44;47.98
69027;BME280;56080;47.594;19.116;2023-02-28T14:52:14;101258;;;6.30;48.74
69027;BME280;56080;47.594;19.116;2023-02-28T15:02:14;101260;;;6.44;48.92
69027;BME280;56080;47.594;19.116;2023-02-28T15:11:58;101270;;;6.48;49.45
69027;BME280;56080;47.594;19.116;2023-02-28T15:32:01;101272;;;6.42;49.70
69027;BME280;56080;47.594;19.116;2023-02-28T15:52:00;101254;;;6.09;51.00
69027;BME280;56080;47.594;19.116;2023-02-28T16:12:02;101270;;;5.81;52.55
69027;BME280;56080;47.594;19.116;2023-02-28T16:22:01;101275;;;5.62;53.58
69027;BME280;56080;47.594;19.116;2023-02-28T16:32:04;101273;;;5.59;54.26
69027;BME280;56080;47.594;19.116;2023-02-28T16:42:01;101293;;;5.30;55.09
69027;BME280;56080;47.594;19.116;2023-02-28T16:52:02;101299;;;5.23;55.37
69027;BME280;56080;47.594;19.116;2023-02-28T17:02:04;101304;;;5.20;55.99
69027;BME280;56080;47.594;19.116;2023-02-28T17:12:02;101320;;;5.12;56.60
69027;BME280;56080;47.594;19.116;2023-02-28T17:22:03;101312;;;4.99;57.56
69027;BME280;56080;47.594;19.116;2023-02-28T17:32:14;101319;;;4.88;58.97
69027;BME280;56080;47.594;19.116;2023-02-28T17:42:03;101325;;;4.81;60.21
69027;BME280;56080;47.594;19.116;2023-02-28T17:52:04;101319;;;4.87;60.52
69027;BME280;56080;47.594;19.116;2023-02-28T18:02:04;101326;;;4.93;60.76
69027;BME280;56080;47.594;19.116;2023-02-28T18:12:05;101333;;;4.80;61.26
69027;BME280;56080;47.594;19.116;2023-02-28T18:22:07;101335;;;4.85;61.24
69027;BME280;56080;47.594;19.116;2023-02-28T18:32:06;101337;;;4.73;61.98
69027;BME280;56080;47.594;19.116;2023-02-28T18:42:05;101337;;;4.63;62.52
69027;BME280;56080;47.594;19.116;2023-02-28T18:52:06;101343;;;4.71;62.15
69027;BME280;56080;47.594;19.116;2023-02-28T19:02:07;101338;;;4.69;62.66
69027;BME280;56080;47.594;19.116;2023-02-28T19:12:07;101339;;;4.78;62.48
69027;BME280;56080;47.594;19.116;2023-02-28T19:22:07;101342;;;4.90;62.00
69027;BME280;56080;47.594;19.116;2023-02-28T19:32:07;101341;;;4.93;62.53
69027;BME280;56080;47.594;19.116;2023-02-28T19:42:11;101340;;;4.99;61.95
69027;BME280;56080;47.594;19.116;2023-02-28T19:52:15;101342;;;5.07;61.72
69027;BME280;56080;47.594;19.116;2023-02-28T20:02:12;101342;;;5.10;61.15
69027;BME280;56080;47.594;19.116;2023-02-28T20:12:22;101346;;;4.96;61.39
69027;BME280;56080;47.594;19.116;2023-02-28T20:22:09;101340;;;5.06;60.75
69027;BME280;56080;47.594;19.116;2023-02-28T20:32:10;101345;;;5.16;60.60
69027;BME280;56080;47.594;19.116;2023-02-28T20:42:12;101342;;;5.01;60.65
69027;BME280;56080;47.594;19.116;2023-02-28T20:52:09;101344;;;5.08;61.05
69027;BME280;56080;47.594;19.116;2023-02-28T21:02:13;101333;;;5.07;60.54
69027;BME280;56080;47.594;19.116;2023-02-28T21:12:11;101330;;;5.14;60.51
69027;BME280;56080;47.594;19.116;2023-02-28T21:22:11;101318;;;5.04;60.57
69027;BME280;56080;47.594;19.116;2023-02-28T21:42:11;101323;;;5.11;61.63
69027;BME280;56080;47.594;19.116;2023-02-28T21:52:11;101314;;;5.21;61.67
69027;BME280;56080;47.594;19.116;2023-02-28T22:02:12;101321;;;5.21;61.70
69027;BME280;56080;47.594;19.116;2023-02-28T22:12:12;101318;;;5.15;62.42
69027;BME280;56080;47.594;19.116;2023-02-28T22:22:12;101331;;;5.08;62.88
69027;BME280;56080;47.594;19.116;2023-02-28T22:32:14;101329;;;5.13;63.82
69027;BME280;56080;47.594;19.116;2023-02-28T22:42:13;101331;;;5.13;63.28
69027;BME280;56080;47.594;19.116;2023-02-28T22:52:13;101335;;;5.22;62.33
69027;BME280;56080;47.594;19.116;2023-02-28T23:02:14;101328;;;5.11;62.77
69027;BME280;56080;47.594;19.116;2023-02-28T23:12:14;101341;;;5.00;63.47
69027;BME280;56080;47.594;19.116;2023-02-28T23:22:14;101327;;;5.01;63.28
69027;BME280;56080;47.594;19.116;2023-02-28T23:32:15;101327;;;5.08;63.35
69027;BME280;56080;47.594;19.116;2023-02-28T23:42:15;101313;;;5.00;63.37
69027;BME280;56080;47.594;19.116;2023-02-28T23:52:15;101314;;;4.76;63.85
